Time;durP1;ratioP1;P1;durP2;ratioP2;P2;SDS_P1;SDS_P2;PMS_P1;PMS_P2;Temp;Humidity;BMP_temperature;BMP_pressure;BME280_temperature;BME280_humidity;BME280_pressure;Samples;Min_cycle;Max_cycle;Signal;HPM_P1;HPM_P2
2022/06/02 00:00:20;;;;;;;2.10;2.00;;;;;;;;;;5071241;28;20528;-80
2022/06/02 00:03:00;;;;;;;3.50;2.50;;;;;;;;;;5066932;28;21126;-80
2022/06/02 00:05:30;;;;;;;3.57;1.63;;;;;;;;;;5068737;28;20445;-80
2022/06/02 00:08:02;;;;;;;2.47;1.50;;;;;;;;;;5070405;28;20929;-80
2022/06/02 00:10:35;;;;;;;1.70;1.60;;;;;;;;;;5071459;28;20429;-81
2022/06/02 00:13:03;;;;;;;1.93;1.57;;;;;;;;;;5071018;28;20433;-80
2022/06/02 00:15:33;;;;;;;1.73;1.50;;;;;;;;;;5071327;28;20473;-79
2022/06/02 00:18:03;;;;;;;1.90;1.80;;;;;;;;;;5069646;28;20437;-79
2022/06/02 00:20:33;;;;;;;1.70;1.63;;;;;;;;;;5069306;28;20433;-81
2022/06/02 00:23:15;;;;;;;1.23;1.23;;;;;;;;;;5067347;28;20475;-79
2022/06/02 00:25:48;;;;;;;2.20;1.77;;;;;;;;;;5067565;28;20468;-79
2022/06/02 00:28:20;;;;;;;3.57;2.10;;;;;;;;;;5068717;28;20417;-80
2022/06/02 00:30:51;;;;;;;2.10;2.00;;;;;;;;;;5067481;28;20777;-81
2022/06/02 00:33:23;;;;;;;1.77;1.67;;;;;;;;;;5068989;28;20455;-82
2022/06/02 00:35:53;;;;;;;1.93;1.77;;;;;;;;;;5065728;28;20552;-80
2022/06/02 00:38:21;;;;;;;1.80;1.70;;;;;;;;;;5063129;28;20430;-80
2022/06/02 00:40:50;;;;;;;2.00;1.90;;;;;;;;;;5065953;28;20472;-80
2022/06/02 00:43:24;;;;;;;1.90;1.80;;;;;;;;;;5066438;28;20454;-80
2022/06/02 00:45:56;;;;;;;2.27;2.00;;;;;;;;;;5065332;28;20453;-79
2022/06/02 00:48:27;;;;;;;1.73;1.63;;;;;;;;;;5066151;28;20415;-80
2022/06/02 00:50:57;;;;;;;1.60;1.50;;;;;;;;;;5067497;28;20540;-80
2022/06/02 00:53:33;;;;;;;2.07;1.97;;;;;;;;;;5066371;28;20434;-80
2022/06/02 00:58:57;;;;;;;1.60;1.50;;;;;;;;;;5068600;28;20448;-79
2022/06/02 01:01:27;;;;;;;1.50;1.40;;;;;;;;;;5067467;28;20448;-81
2022/06/02 01:03:55;;;;;;;1.73;1.63;;;;;;;;;;5066620;28;20458;-80
2022/06/02 01:06:33;;;;;;;1.70;1.60;;;;;;;;;;5068611;28;20441;-79
2022/06/02 01:09:17;;;;;;;1.50;1.40;;;;;;;;;;5069292;28;20461;-81
2022/06/02 01:11:52;;;;;;;1.43;1.33;;;;;;;;;;5066728;28;20450;-80
2022/06/02 01:14:28;;;;;;;2.37;1.63;;;;;;;;;;5065289;28;20441;-80
2022/06/02 01:16:59;;;;;;;2.13;1.53;;;;;;;;;;5062601;28;20465;-79
2022/06/02 01:19:44;;;;;;;1.93;1.83;;;;;;;;;;5058780;28;20495;-79
2022/06/02 01:22:21;;;;;;;3.73;2.00;;;;;;;;;;5061831;28;20486;-81
2022/06/02 01:24:55;;;;;;;2.40;2.20;;;;;;;;;;5065662;28;20448;-80
2022/06/02 01:27:35;;;;;;;3.00;1.90;;;;;;;;;;5056890;28;20448;-79
2022/06/02 01:30:10;;;;;;;2.23;2.00;;;;;;;;;;5056740;28;20477;-80
2022/06/02 01:32:41;;;;;;;2.93;2.00;;;;;;;;;;5057237;28;20445;-81
2022/06/02 01:35:11;;;;;;;3.10;2.10;;;;;;;;;;5059442;28;20994;-81
2022/06/02 01:37:42;;;;;;;2.17;1.97;;;;;;;;;;5060291;28;20465;-81
2022/06/02 01:40:17;;;;;;;2.47;2.00;;;;;;;;;;5070700;28;20465;-81
2022/06/02 01:42:52;;;;;;;2.00;1.73;;;;;;;;;;5072773;28;20437;-80
2022/06/02 01:45:24;;;;;;;2.53;2.17;;;;;;;;;;5075005;28;20453;-80
2022/06/02 01:47:58;;;;;;;2.17;2.07;;;;;;;;;;5074915;28;20464;-81
2022/06/02 01:50:31;;;;;;;1.77;1.67;;;;;;;;;;5071418;28;20469;-80
2022/06/02 01:53:03;;;;;;;1.80;1.70;;;;;;;;;;5066854;28;20437;-81
2022/06/02 01:55:39;;;;;;;1.83;1.73;;;;;;;;;;5059693;28;20453;-80
2022/06/02 01:58:12;;;;;;;4.13;1.70;;;;;;;;;;5061318;28;20440;-80
2022/06/02 02:00:39;;;;;;;2.10;2.00;;;;;;;;;;5061862;28;20429;-81
2022/06/02 02:03:12;;;;;;;1.90;1.70;;;;;;;;;;5062465;28;20438;-81
2022/06/02 02:05:44;;;;;;;1.70;1.60;;;;;;;;;;5062520;28;20446;-81
2022/06/02 02:08:36;;;;;;;2.03;1.90;;;;;;;;;;5061588;28;20442;-80
2022/06/02 02:11:12;;;;;;;1.80;1.70;;;;;;;;;;5061993;28;20503;-80
2022/06/02 02:13:46;;;;;;;2.10;1.80;;;;;;;;;;5061273;28;20433;-80
2022/06/02 02:16:19;;;;;;;1.90;1.80;;;;;;;;;;5061435;28;20477;-81
2022/06/02 02:18:53;;;;;;;4.70;1.90;;;;;;;;;;5061918;28;20466;-80
2022/06/02 02:21:24;;;;;;;1.90;1.80;;;;;;;;;;5061149;28;20433;-81
2022/06/02 02:23:57;;;;;;;1.93;1.83;;;;;;;;;;5061807;28;20457;-80
2022/06/02 02:26:28;;;;;;;2.47;1.80;;;;;;;;;;5060962;28;20446;-81
2022/06/02 02:29:00;;;;;;;1.80;1.70;;;;;;;;;;5061171;28;20454;-80
2022/06/02 02:31:34;;;;;;;2.20;1.90;;;;;;;;;;5061834;28;20548;-80
2022/06/02 02:34:08;;;;;;;3.53;2.60;;;;;;;;;;5061444;28;20456;-80
2022/06/02 02:36:43;;;;;;;2.00;1.90;;;;;;;;;;5061966;28;20481;-81
2022/06/02 02:39:14;;;;;;;2.03;1.73;;;;;;;;;;5062861;28;20486;-80
2022/06/02 02:41:44;;;;;;;1.90;1.80;;;;;;;;;;5061876;28;20449;-79
2022/06/02 02:44:13;;;;;;;1.87;1.70;;;;;;;;;;5061776;28;20511;-81
2022/06/02 02:46:46;;;;;;;2.10;2.00;;;;;;;;;;5062935;28;20683;-80
2022/06/02 02:49:18;;;;;;;4.80;2.30;;;;;;;;;;5063643;28;20479;-80
2022/06/02 02:51:49;;;;;;;1.90;1.80;;;;;;;;;;5063492;28;20909;-80
2022/06/02 02:54:21;;;;;;;1.87;1.80;;;;;;;;;;5062969;28;20460;-80
2022/06/02 02:56:51;;;;;;;1.97;1.87;;;;;;;;;;5062963;28;20910;-81
2022/06/02 02:59:21;;;;;;;3.27;1.93;;;;;;;;;;5062602;28;20991;-81
2022/06/02 03:01:51;;;;;;;2.70;2.00;;;;;;;;;;5061595;28;20784;-81
2022/06/02 03:04:26;;;;;;;2.00;1.83;;;;;;;;;;5061368;28;20441;-81
2022/06/02 03:06:54;;;;;;;2.73;1.40;;;;;;;;;;5063558;28;20448;-82
2022/06/02 03:09:24;;;;;;;6.60;2.43;;;;;;;;;;5063867;28;20457;-82
2022/06/02 03:12:06;;;;;;;1.97;1.77;;;;;;;;;;5061684;28;20446;-81
2022/06/02 03:14:42;;;;;;;2.03;1.90;;;;;;;;;;5059946;28;20450;-81
2022/06/02 03:17:14;;;;;;;2.13;1.80;;;;;;;;;;5059063;28;20556;-80
2022/06/02 03:19:47;;;;;;;2.10;2.00;;;;;;;;;;5058351;28;20473;-80
2022/06/02 03:22:18;;;;;;;2.17;1.80;;;;;;;;;;5057297;28;20920;-80
2022/06/02 03:24:49;;;;;;;2.03;1.80;;;;;;;;;;5057200;28;20456;-81
2022/06/02 03:27:22;;;;;;;2.13;2.00;;;;;;;;;;5059695;28;20433;-80
2022/06/02 03:29:58;;;;;;;1.60;1.50;;;;;;;;;;5058228;28;20453;-81
2022/06/02 03:32:43;;;;;;;2.50;1.90;;;;;;;;;;5059071;28;20463;-81
2022/06/02 03:35:17;;;;;;;2.03;1.87;;;;;;;;;;5048685;28;20480;-81
2022/06/02 03:37:52;;;;;;;1.60;1.60;;;;;;;;;;5063547;28;20476;-81
2022/06/02 03:40:26;;;;;;;1.93;1.83;;;;;;;;;;5064793;28;20499;-81
2022/06/02 03:42:56;;;;;;;2.03;1.83;;;;;;;;;;5065212;28;20426;-81
2022/06/02 03:45:30;;;;;;;2.37;2.17;;;;;;;;;;5065059;28;20468;-82
2022/06/02 03:48:12;;;;;;;2.33;2.13;;;;;;;;;;5065988;28;20495;-81
2022/06/02 03:50:49;;;;;;;1.70;1.60;;;;;;;;;;5067171;28;20445;-81
2022/06/02 03:53:34;;;;;;;2.40;2.20;;;;;;;;;;5067158;28;20767;-80
2022/06/02 03:56:06;;;;;;;2.30;2.20;;;;;;;;;;5053775;28;20448;-81
2022/06/02 03:58:51;;;;;;;2.43;2.33;;;;;;;;;;5066886;28;20507;-82
2022/06/02 04:01:20;;;;;;;2.73;2.30;;;;;;;;;;5066984;28;20438;-81
2022/06/02 04:03:59;;;;;;;2.50;2.33;;;;;;;;;;5067600;28;20503;-81
2022/06/02 04:06:36;;;;;;;2.30;2.10;;;;;;;;;;5067634;28;20437;-81
2022/06/02 04:09:11;;;;;;;2.07;1.97;;;;;;;;;;5067227;28;20469;-80
2022/06/02 04:14:36;;;;;;;1.90;1.80;;;;;;;;;;5067928;28;20413;-80
2022/06/02 04:17:07;;;;;;;4.30;2.67;;;;;;;;;;5066213;28;20899;-80
2022/06/02 04:22:35;;;;;;;2.40;2.13;;;;;;;;;;5073510;28;20436;-81
2022/06/02 04:25:08;;;;;;;2.37;2.17;;;;;;;;;;5073941;28;20448;-81
2022/06/02 04:27:40;;;;;;;2.00;1.90;;;;;;;;;;5070352;28;20441;-80
2022/06/02 04:30:11;;;;;;;2.47;2.27;;;;;;;;;;5064572;28;20454;-80
2022/06/02 04:32:41;;;;;;;2.77;2.50;;;;;;;;;;5066109;28;20445;-80
2022/06/02 04:35:23;;;;;;;2.37;2.23;;;;;;;;;;5067216;28;20434;-81
2022/06/02 04:37:58;;;;;;;2.30;2.10;;;;;;;;;;5066754;28;20485;-82
2022/06/02 04:40:31;;;;;;;2.50;2.30;;;;;;;;;;5070372;28;20461;-81
2022/06/02 04:43:04;;;;;;;2.50;2.33;;;;;;;;;;5067661;28;20441;-82
2022/06/02 04:45:36;;;;;;;2.90;2.70;;;;;;;;;;5065574;28;20461;-80
2022/06/02 04:48:07;;;;;;;2.40;2.10;;;;;;;;;;5069484;28;20414;-80
2022/06/02 04:50:39;;;;;;;2.27;2.17;;;;;;;;;;5064856;28;20501;-81
2022/06/02 04:53:13;;;;;;;2.10;1.90;;;;;;;;;;5045338;28;20841;-81
2022/06/02 04:55:46;;;;;;;2.60;2.40;;;;;;;;;;5062490;28;20446;-81
2022/06/02 04:58:17;;;;;;;4.50;2.13;;;;;;;;;;5071827;28;20517;-80
2022/06/02 05:00:47;;;;;;;2.87;2.27;;;;;;;;;;5072578;28;20445;-80
2022/06/02 05:03:18;;;;;;;2.27;2.03;;;;;;;;;;5071620;28;20430;-81
2022/06/02 05:05:50;;;;;;;2.30;2.10;;;;;;;;;;5070302;28;20514;-81
2022/06/02 05:08:39;;;;;;;2.67;2.47;;;;;;;;;;5071031;28;20485;-81
2022/06/02 05:11:13;;;;;;;2.63;2.53;;;;;;;;;;5071473;28;20481;-81
2022/06/02 05:13:47;;;;;;;2.80;2.60;;;;;;;;;;5072415;28;20429;-80
2022/06/02 05:16:20;;;;;;;2.70;2.53;;;;;;;;;;5068095;28;20495;-80
2022/06/02 05:18:59;;;;;;;2.40;2.23;;;;;;;;;;5063287;28;20481;-81
2022/06/02 05:21:37;;;;;;;2.10;2.00;;;;;;;;;;5062293;28;20445;-81
2022/06/02 05:24:21;;;;;;;2.80;2.60;;;;;;;;;;5061761;28;20446;-81
2022/06/02 05:27:16;;;;;;;2.07;1.97;;;;;;;;;;5061185;28;20790;-80
2022/06/02 05:29:51;;;;;;;3.00;2.37;;;;;;;;;;5066924;28;20496;-80
2022/06/02 05:32:42;;;;;;;2.40;2.30;;;;;;;;;;5077311;28;20446;-82
2022/06/02 05:35:19;;;;;;;2.47;2.37;;;;;;;;;;5057195;28;20437;-80
2022/06/02 05:37:51;;;;;;;2.30;2.20;;;;;;;;;;5075972;28;20489;-81
2022/06/02 05:40:22;;;;;;;2.77;2.57;;;;;;;;;;5075614;28;20498;-81
2022/06/02 05:42:56;;;;;;;2.50;2.40;;;;;;;;;;5075648;28;20455;-80
2022/06/02 05:45:27;;;;;;;2.50;2.30;;;;;;;;;;5068533;28;20458;-80
2022/06/02 05:48:05;;;;;;;2.83;2.63;;;;;;;;;;5063710;28;20442;-80
2022/06/02 05:50:36;;;;;;;2.90;2.80;;;;;;;;;;5063480;28;20803;-80
2022/06/02 05:53:08;;;;;;;2.33;2.13;;;;;;;;;;5063514;28;20950;-81
2022/06/02 05:55:46;;;;;;;2.73;2.53;;;;;;;;;;5064671;28;20434;-80
2022/06/02 05:58:22;;;;;;;2.60;2.40;;;;;;;;;;5064462;28;20665;-79
2022/06/02 06:00:54;;;;;;;2.40;2.30;;;;;;;;;;5065586;28;20441;-80
2022/06/02 06:03:40;;;;;;;3.10;2.77;;;;;;;;;;5062959;28;20983;-79
2022/06/02 06:06:18;;;;;;;3.10;3.00;;;;;;;;;;5061464;28;20448;-80
2022/06/02 06:08:50;;;;;;;2.50;2.30;;;;;;;;;;5061285;28;20477;-79
2022/06/02 06:11:24;;;;;;;3.30;3.10;;;;;;;;;;5059307;28;20469;-79
2022/06/02 06:13:57;;;;;;;3.17;2.97;;;;;;;;;;5052295;28;20456;-79
2022/06/02 06:16:27;;;;;;;2.67;2.57;;;;;;;;;;5061837;28;20459;-81
2022/06/02 06:18:59;;;;;;;2.90;2.67;;;;;;;;;;5061143;28;20473;-81
2022/06/02 06:21:31;;;;;;;2.47;2.27;;;;;;;;;;5060307;28;20947;-80
2022/06/02 06:24:18;;;;;;;3.07;2.77;;;;;;;;;;5046454;28;20446;-79
2022/06/02 06:26:52;;;;;;;2.67;2.47;;;;;;;;;;5060001;28;20460;-81
2022/06/02 06:29:29;;;;;;;3.60;2.50;;;;;;;;;;5061376;28;20489;-81
2022/06/02 06:32:03;;;;;;;3.17;2.90;;;;;;;;;;5060830;28;20444;-80
2022/06/02 06:34:35;;;;;;;2.40;2.20;;;;;;;;;;5061849;28;20495;-81
2022/06/02 06:37:20;;;;;;;6.37;3.13;;;;;;;;;;5060989;28;20485;-81
2022/06/02 06:39:50;;;;;;;2.73;2.53;;;;;;;;;;5059943;28;20471;-80
2022/06/02 06:42:25;;;;;;;2.50;2.40;;;;;;;;;;5060456;28;20426;-82
2022/06/02 06:44:54;;;;;;;2.97;2.50;;;;;;;;;;5059116;28;20444;-81
2022/06/02 06:47:29;;;;;;;3.00;2.80;;;;;;;;;;5060264;28;20437;-81
2022/06/02 06:50:00;;;;;;;2.37;2.03;;;;;;;;;;5059546;28;20499;-80
2022/06/02 06:52:37;;;;;;;3.03;2.83;;;;;;;;;;5060722;28;20468;-81
2022/06/02 06:55:09;;;;;;;3.30;2.97;;;;;;;;;;5061984;28;20521;-81
2022/06/02 06:57:42;;;;;;;2.87;2.57;;;;;;;;;;5061839;28;20474;-81
2022/06/02 07:00:16;;;;;;;2.40;2.30;;;;;;;;;;5061358;28;20470;-81
2022/06/02 07:02:51;;;;;;;3.23;2.63;;;;;;;;;;5061701;28;20440;-81
2022/06/02 07:05:21;;;;;;;2.63;2.53;;;;;;;;;;5054989;28;20450;-81
2022/06/02 07:07:57;;;;;;;2.67;2.53;;;;;;;;;;5054948;28;20491;-80
2022/06/02 07:10:27;;;;;;;5.27;3.97;;;;;;;;;;5061827;28;20460;-80
2022/06/02 07:12:58;;;;;;;2.80;2.60;;;;;;;;;;5066302;28;20443;-81
2022/06/02 07:15:30;;;;;;;3.60;3.37;;;;;;;;;;5066275;28;20472;-81
2022/06/02 07:18:00;;;;;;;2.93;2.73;;;;;;;;;;5067048;28;20500;-80
2022/06/02 07:20:30;;;;;;;3.20;3.00;;;;;;;;;;5066113;28;20468;-81
2022/06/02 07:23:02;;;;;;;3.00;2.80;;;;;;;;;;5066541;28;20474;-81
2022/06/02 07:25:30;;;;;;;3.13;2.70;;;;;;;;;;5066513;28;20457;-80
2022/06/02 07:28:02;;;;;;;3.33;3.03;;;;;;;;;;5065140;28;20441;-81
2022/06/02 07:30:43;;;;;;;4.10;3.00;;;;;;;;;;5065252;28;21004;-80
2022/06/02 07:33:28;;;;;;;3.20;2.50;;;;;;;;;;5064313;28;20457;-81
2022/06/02 07:36:14;;;;;;;3.10;3.00;;;;;;;;;;5065836;28;20441;-81
2022/06/02 07:38:58;;;;;;;3.07;2.87;;;;;;;;;;5065723;28;20500;-81
2022/06/02 07:41:34;;;;;;;3.50;3.23;;;;;;;;;;5066043;28;20429;-80
2022/06/02 07:44:10;;;;;;;4.03;2.90;;;;;;;;;;5065590;28;21314;-81
2022/06/02 07:46:46;;;;;;;2.67;2.47;;;;;;;;;;5065612;28;20446;-81
2022/06/02 07:49:32;;;;;;;4.00;2.70;;;;;;;;;;5066080;28;20476;-81
2022/06/02 07:52:01;;;;;;;2.70;2.50;;;;;;;;;;5050816;28;20453;-79
2022/06/02 07:54:35;;;;;;;3.07;2.33;;;;;;;;;;5065475;28;20438;-81
2022/06/02 07:57:09;;;;;;;3.50;2.50;;;;;;;;;;5064720;28;20924;-80
2022/06/02 07:59:50;;;;;;;3.17;2.50;;;;;;;;;;5064471;28;20577;-80
2022/06/02 08:02:29;;;;;;;4.60;2.83;;;;;;;;;;5065850;28;20460;-81
2022/06/02 08:05:00;;;;;;;3.00;2.70;;;;;;;;;;5065535;28;20606;-81
2022/06/02 08:07:33;;;;;;;2.30;2.20;;;;;;;;;;5065921;28;20441;-82
2022/06/02 08:10:03;;;;;;;4.53;3.30;;;;;;;;;;5066999;28;20488;-81
2022/06/02 08:12:35;;;;;;;4.17;3.17;;;;;;;;;;5067402;28;20422;-80
2022/06/02 08:15:09;;;;;;;3.33;3.00;;;;;;;;;;5059668;28;20553;-81
2022/06/02 08:17:38;;;;;;;3.20;2.90;;;;;;;;;;5059543;28;20457;-81
2022/06/02 08:20:23;;;;;;;3.23;3.03;;;;;;;;;;5063186;28;20466;-80
2022/06/02 08:22:55;;;;;;;3.40;3.00;;;;;;;;;;5062267;28;20422;-79
2022/06/02 08:25:24;;;;;;;3.23;3.03;;;;;;;;;;5064274;28;20430;-79
2022/06/02 08:28:00;;;;;;;3.20;2.87;;;;;;;;;;5063941;28;20499;-81
2022/06/02 08:30:34;;;;;;;3.10;2.53;;;;;;;;;;5061470;28;20469;-82
2022/06/02 08:33:10;;;;;;;3.43;2.70;;;;;;;;;;5062358;28;20941;-81
2022/06/02 08:35:40;;;;;;;2.73;2.50;;;;;;;;;;5062083;28;20429;-80
2022/06/02 08:38:16;;;;;;;3.00;2.70;;;;;;;;;;5064110;28;20473;-84
2022/06/02 08:40:57;;;;;;;2.80;2.70;;;;;;;;;;5063128;28;20410;-83
2022/06/02 08:43:44;;;;;;;3.30;2.50;;;;;;;;;;5061303;28;20450;-80
2022/06/02 08:46:29;;;;;;;3.50;2.20;;;;;;;;;;5060675;28;20417;-80
2022/06/02 08:49:17;;;;;;;3.77;2.40;;;;;;;;;;5061389;28;20453;-80
2022/06/02 08:52:02;;;;;;;3.33;3.03;;;;;;;;;;5056261;28;20452;-80
2022/06/02 08:54:50;;;;;;;2.97;2.77;;;;;;;;;;5060615;28;20464;-80
2022/06/02 08:57:35;;;;;;;5.93;3.50;;;;;;;;;;5018295;28;20454;-80
2022/06/02 09:00:20;;;;;;;3.40;3.10;;;;;;;;;;5052263;28;20449;-81
2022/06/02 09:03:14;;;;;;;6.20;3.27;;;;;;;;;;5061969;28;20426;-80
2022/06/02 09:05:56;;;;;;;3.00;2.87;;;;;;;;;;5061980;28;20529;-81
2022/06/02 09:08:38;;;;;;;3.33;2.83;;;;;;;;;;5061842;28;20768;-81
2022/06/02 09:11:12;;;;;;;3.40;2.73;;;;;;;;;;5059315;28;20453;-81
2022/06/02 09:14:05;;;;;;;2.80;2.60;;;;;;;;;;5061918;28;20456;-82
2022/06/02 09:16:39;;;;;;;3.43;2.23;;;;;;;;;;5059740;28;20446;-81
2022/06/02 09:19:31;;;;;;;2.80;2.20;;;;;;;;;;5061861;28;20487;-81
2022/06/02 09:22:04;;;;;;;2.73;2.50;;;;;;;;;;5061331;28;20752;-80
2022/06/02 09:24:34;;;;;;;7.20;2.77;;;;;;;;;;5061790;28;20426;-80
2022/06/02 09:27:26;;;;;;;2.50;2.30;;;;;;;;;;5060339;28;20517;-80
2022/06/02 09:29:57;;;;;;;2.40;2.30;;;;;;;;;;5059786;28;20829;-82
2022/06/02 09:32:32;;;;;;;2.53;2.33;;;;;;;;;;5061337;28;20461;-81
2022/06/02 09:35:20;;;;;;;3.80;3.17;;;;;;;;;;5062234;28;20535;-81
2022/06/02 09:38:06;;;;;;;2.50;2.33;;;;;;;;;;5062893;28;20813;-80
2022/06/02 09:40:42;;;;;;;3.00;2.70;;;;;;;;;;5062536;28;20469;-80
2022/06/02 09:43:28;;;;;;;2.73;2.53;;;;;;;;;;5061567;28;20450;-81
2022/06/02 09:46:04;;;;;;;3.50;2.23;;;;;;;;;;5061498;28;20453;-80
2022/06/02 09:48:40;;;;;;;2.23;2.13;;;;;;;;;;5061165;28;20473;-81
2022/06/02 09:51:20;;;;;;;2.47;2.27;;;;;;;;;;5060912;28;20579;-80
2022/06/02 09:53:59;;;;;;;3.60;2.50;;;;;;;;;;5061127;28;20933;-80
2022/06/02 09:56:35;;;;;;;2.20;2.00;;;;;;;;;;5061260;28;20475;-81
2022/06/02 09:59:10;;;;;;;2.13;2.03;;;;;;;;;;5061311;28;20485;-79
2022/06/02 10:01:46;;;;;;;2.13;2.03;;;;;;;;;;5061417;28;20461;-82
2022/06/02 10:04:31;;;;;;;2.37;2.23;;;;;;;;;;5063601;28;20453;-80
2022/06/02 10:07:25;;;;;;;2.00;1.90;;;;;;;;;;5066266;28;20457;-80
2022/06/02 10:10:04;;;;;;;3.33;2.60;;;;;;;;;;5032215;28;20610;-80
2022/06/02 10:15:35;;;;;;;2.37;2.20;;;;;;;;;;5067445;28;20422;-80
2022/06/02 10:18:08;;;;;;;3.60;2.77;;;;;;;;;;5067369;28;20437;-80
2022/06/02 10:20:46;;;;;;;2.20;2.00;;;;;;;;;;5066979;28;20454;-80
2022/06/02 10:23:19;;;;;;;2.30;2.13;;;;;;;;;;5067003;28;20441;-80
2022/06/02 10:26:07;;;;;;;2.17;2.00;;;;;;;;;;5066951;28;20430;-81
2022/06/02 10:28:49;;;;;;;2.77;2.63;;;;;;;;;;5066534;28;20461;-80
2022/06/02 10:31:34;;;;;;;2.60;2.40;;;;;;;;;;5063420;28;20771;-81
2022/06/02 10:34:16;;;;;;;4.00;2.27;;;;;;;;;;5066291;28;20441;-81
2022/06/02 10:37:02;;;;;;;3.40;2.00;;;;;;;;;;5051720;28;20461;-81
2022/06/02 10:39:55;;;;;;;1.87;1.77;;;;;;;;;;5066510;28;20477;-80
2022/06/02 10:42:29;;;;;;;2.53;2.33;;;;;;;;;;5069894;28;20429;-79
2022/06/02 10:45:10;;;;;;;2.00;1.90;;;;;;;;;;5069976;28;20449;-81
2022/06/02 10:47:50;;;;;;;2.37;2.23;;;;;;;;;;5064609;28;20476;-80
2022/06/02 10:50:23;;;;;;;2.20;1.60;;;;;;;;;;5067453;28;20518;-81
2022/06/02 10:53:04;;;;;;;1.90;1.80;;;;;;;;;;5066436;28;20454;-81
2022/06/02 10:55:54;;;;;;;1.90;1.80;;;;;;;;;;5064623;28;20488;-81
2022/06/02 10:58:48;;;;;;;1.87;1.77;;;;;;;;;;5067674;28;20445;-81
2022/06/02 11:01:27;;;;;;;1.93;1.83;;;;;;;;;;5029559;28;20454;-80
2022/06/02 11:04:13;;;;;;;2.00;1.90;;;;;;;;;;5072247;28;20449;-80
2022/06/02 11:07:14;;;;;;;2.13;1.93;;;;;;;;;;5073931;28;20449;-80
2022/06/02 11:09:53;;;;;;;2.57;2.37;;;;;;;;;;5043941;28;20829;-81
2022/06/02 11:12:34;;;;;;;2.20;1.40;;;;;;;;;;5042017;28;20443;-80
2022/06/02 11:15:22;;;;;;;1.90;1.80;;;;;;;;;;5040148;28;20510;-78
2022/06/02 11:18:07;;;;;;;2.07;1.97;;;;;;;;;;5050590;28;20438;-81
2022/06/02 11:20:51;;;;;;;2.53;1.70;;;;;;;;;;5039164;28;20481;-81
2022/06/02 11:23:30;;;;;;;2.50;2.30;;;;;;;;;;5035974;28;21162;-81
2022/06/02 11:26:07;;;;;;;1.67;1.57;;;;;;;;;;5034863;28;20790;-81
2022/06/02 11:28:46;;;;;;;2.20;2.10;;;;;;;;;;5047350;28;20515;-80
2022/06/02 11:31:34;;;;;;;2.10;2.00;;;;;;;;;;5048256;28;20449;-81
2022/06/02 11:34:16;;;;;;;5.20;1.93;;;;;;;;;;5041416;28;20818;-81
2022/06/02 11:37:07;;;;;;;2.17;2.00;;;;;;;;;;5034021;28;20864;-81
2022/06/02 11:39:55;;;;;;;3.00;2.03;;;;;;;;;;5039103;28;20471;-80
2022/06/02 11:42:32;;;;;;;2.00;1.87;;;;;;;;;;5038946;28;20446;-81
2022/06/02 11:45:01;;;;;;;2.33;2.17;;;;;;;;;;5038466;28;20457;-81
2022/06/02 11:47:53;;;;;;;2.03;1.83;;;;;;;;;;5038140;28;20473;-81
2022/06/02 11:50:45;;;;;;;1.60;1.50;;;;;;;;;;5039329;28;20462;-80
2022/06/02 11:53:30;;;;;;;1.67;1.60;;;;;;;;;;5038881;28;20484;-80
2022/06/02 11:55:59;;;;;;;2.00;1.87;;;;;;;;;;5040394;28;20871;-80
2022/06/02 11:58:45;;;;;;;2.07;1.97;;;;;;;;;;5048911;28;20466;-81
2022/06/02 12:01:35;;;;;;;1.90;1.80;;;;;;;;;;5047968;28;20451;-80
2022/06/02 12:04:22;;;;;;;2.13;1.67;;;;;;;;;;5055721;28;20447;-81
2022/06/02 12:07:06;;;;;;;1.80;1.70;;;;;;;;;;5057618;28;20458;-79
2022/06/02 12:09:41;;;;;;;4.30;1.80;;;;;;;;;;5057911;28;20458;-80
2022/06/02 12:12:20;;;;;;;3.00;1.90;;;;;;;;;;5057906;28;20426;-81
2022/06/02 12:15:01;;;;;;;2.13;1.93;;;;;;;;;;5057739;28;20468;-81
2022/06/02 12:17:49;;;;;;;3.67;1.80;;;;;;;;;;5055415;28;20450;-81
2022/06/02 12:20:27;;;;;;;1.80;1.67;;;;;;;;;;5040667;28;20493;-81
2022/06/02 12:23:14;;;;;;;1.87;1.77;;;;;;;;;;5044493;28;20492;-80
2022/06/02 12:25:49;;;;;;;6.47;1.87;;;;;;;;;;5044529;28;20926;-81
2022/06/02 12:28:35;;;;;;;2.10;1.90;;;;;;;;;;5047765;28;20485;-81
2022/06/02 12:31:16;;;;;;;1.77;1.60;;;;;;;;;;5052964;28;20446;-80
2022/06/02 12:33:52;;;;;;;2.90;1.93;;;;;;;;;;5053096;28;20441;-82
2022/06/02 12:36:27;;;;;;;1.87;1.77;;;;;;;;;;5053170;28;20437;-81
2022/06/02 12:39:01;;;;;;;1.90;1.80;;;;;;;;;;5052739;28;20496;-81
2022/06/02 12:41:35;;;;;;;2.07;1.77;;;;;;;;;;5053697;28;20473;-81
2022/06/02 12:44:20;;;;;;;3.93;1.70;;;;;;;;;;5049554;28;20458;-81
2022/06/02 12:46:59;;;;;;;1.70;1.43;;;;;;;;;;5007899;28;20443;-81
2022/06/02 12:49:52;;;;;;;2.33;2.17;;;;;;;;;;5045764;28;20462;-81
2022/06/02 12:52:30;;;;;;;1.80;1.70;;;;;;;;;;5047084;28;20449;-81
2022/06/02 12:55:18;;;;;;;2.50;1.70;;;;;;;;;;5047333;28;20438;-80
2022/06/02 12:57:59;;;;;;;2.00;1.73;;;;;;;;;;5051820;28;20443;-79
2022/06/02 13:00:33;;;;;;;2.00;1.90;;;;;;;;;;5053191;28;20545;-80
2022/06/02 13:03:15;;;;;;;2.10;2.00;;;;;;;;;;5054078;28;20469;-80
2022/06/02 13:05:55;;;;;;;1.93;1.80;;;;;;;;;;5051509;28;20450;-79
2022/06/02 13:08:39;;;;;;;1.60;1.50;;;;;;;;;;5064395;28;20433;-80
2022/06/02 13:11:24;;;;;;;1.63;1.50;;;;;;;;;;5073931;28;20419;-81
2022/06/02 13:14:11;;;;;;;2.40;1.80;;;;;;;;;;5060333;28;20449;-81
2022/06/02 13:16:56;;;;;;;2.00;1.90;;;;;;;;;;5076784;28;20438;-80
2022/06/02 13:19:47;;;;;;;1.80;1.70;;;;;;;;;;5063428;28;20540;-81
2022/06/02 13:22:26;;;;;;;1.70;1.60;;;;;;;;;;5076250;28;20442;-81
2022/06/02 13:25:09;;;;;;;3.73;2.03;;;;;;;;;;5072497;28;20513;-81
2022/06/02 13:27:57;;;;;;;2.30;2.07;;;;;;;;;;5072767;28;20548;-80
2022/06/02 13:30:43;;;;;;;2.10;2.00;;;;;;;;;;5069188;28;20457;-81
2022/06/02 13:33:30;;;;;;;2.80;2.00;;;;;;;;;;5074961;28;20457;-80
2022/06/02 13:36:08;;;;;;;1.60;1.60;;;;;;;;;;5075489;28;20441;-81
2022/06/02 13:38:56;;;;;;;3.37;2.07;;;;;;;;;;5075876;28;20454;-81
2022/06/02 13:41:29;;;;;;;3.90;2.00;;;;;;;;;;5076451;28;20430;-81
2022/06/02 13:44:05;;;;;;;1.70;1.60;;;;;;;;;;5076029;28;20515;-80
2022/06/02 13:47:03;;;;;;;1.90;1.80;;;;;;;;;;5076840;28;20433;-81
2022/06/02 13:49:49;;;;;;;1.90;1.80;;;;;;;;;;5076507;28;20446;-80
2022/06/02 13:52:30;;;;;;;1.97;1.90;;;;;;;;;;5073263;28;20437;-80
2022/06/02 13:57:59;;;;;;;1.93;1.70;;;;;;;;;;5076996;28;20432;-81
2022/06/02 14:00:34;;;;;;;1.80;1.70;;;;;;;;;;5076737;28;20484;-81
2022/06/02 14:03:12;;;;;;;2.10;2.00;;;;;;;;;;5076256;28;20455;-81
2022/06/02 14:05:44;;;;;;;1.83;1.73;;;;;;;;;;5076016;28;20453;-80
2022/06/02 14:08:33;;;;;;;3.30;2.03;;;;;;;;;;5072788;28;20441;-82
2022/06/02 14:11:08;;;;;;;4.13;1.93;;;;;;;;;;5075976;28;20418;-81
2022/06/02 14:13:50;;;;;;;4.23;1.90;;;;;;;;;;5073200;28;20452;-81
2022/06/02 14:16:21;;;;;;;2.03;1.83;;;;;;;;;;5056833;28;20564;-81
2022/06/02 14:18:53;;;;;;;1.87;1.70;;;;;;;;;;5076144;28;20488;-81
2022/06/02 14:21:27;;;;;;;1.93;1.67;;;;;;;;;;5074958;28;20500;-81
2022/06/02 14:24:01;;;;;;;1.83;1.73;;;;;;;;;;5074336;28;20433;-81
2022/06/02 14:26:33;;;;;;;2.70;1.70;;;;;;;;;;5076543;28;20425;-82
2022/06/02 14:29:06;;;;;;;1.93;1.80;;;;;;;;;;5074415;28;20569;-80
2022/06/02 14:31:39;;;;;;;2.00;1.80;;;;;;;;;;5068706;28;20529;-81
2022/06/02 14:34:12;;;;;;;4.33;1.83;;;;;;;;;;5064554;28;20452;-82
2022/06/02 14:36:42;;;;;;;2.10;2.00;;;;;;;;;;5063495;28;20457;-81
2022/06/02 14:39:16;;;;;;;3.67;1.80;;;;;;;;;;5064349;28;21001;-82
2022/06/02 14:41:52;;;;;;;2.60;2.30;;;;;;;;;;5074963;28;20422;-81
2022/06/02 14:44:29;;;;;;;2.20;1.80;;;;;;;;;;5074954;28;20457;-81
2022/06/02 14:47:05;;;;;;;2.10;1.80;;;;;;;;;;5075474;28;20445;-81
2022/06/02 14:49:43;;;;;;;3.33;2.03;;;;;;;;;;5075120;28;20453;-81
2022/06/02 14:52:20;;;;;;;4.50;1.93;;;;;;;;;;5066938;28;20716;-81
2022/06/02 14:54:56;;;;;;;2.30;1.90;;;;;;;;;;5068950;28;20511;-81
2022/06/02 14:57:29;;;;;;;4.40;1.70;;;;;;;;;;5068273;28;20535;-81
2022/06/02 15:00:04;;;;;;;2.97;1.70;;;;;;;;;;5068135;28;20485;-81
2022/06/02 15:03:02;;;;;;;1.90;1.80;;;;;;;;;;5069508;28;20471;-81
2022/06/02 15:05:32;;;;;;;2.33;2.13;;;;;;;;;;5074710;28;20434;-81
2022/06/02 15:08:18;;;;;;;2.17;1.83;;;;;;;;;;5072732;28;20436;-82
2022/06/02 15:10:47;;;;;;;2.30;2.00;;;;;;;;;;5057318;28;20438;-80
2022/06/02 15:13:48;;;;;;;2.70;2.07;;;;;;;;;;5061721;28;20995;-80
2022/06/02 15:16:27;;;;;;;2.00;1.90;;;;;;;;;;5060978;28;20454;-79
2022/06/02 15:19:21;;;;;;;2.30;2.10;;;;;;;;;;5061114;28;20459;-80
2022/06/02 15:21:58;;;;;;;2.07;1.97;;;;;;;;;;5025531;28;20481;-80
2022/06/02 15:24:28;;;;;;;2.20;1.90;;;;;;;;;;5060885;28;20465;-80
2022/06/02 15:27:13;;;;;;;2.10;1.73;;;;;;;;;;5061856;28;20445;-80
2022/06/02 15:29:58;;;;;;;2.73;2.20;;;;;;;;;;5061658;28;20479;-81
2022/06/02 15:32:41;;;;;;;2.10;1.90;;;;;;;;;;5063036;28;20481;-80
2022/06/02 15:35:18;;;;;;;2.10;2.00;;;;;;;;;;5066391;28;20452;-81
2022/06/02 15:37:55;;;;;;;1.83;1.73;;;;;;;;;;5067590;28;20495;-80
2022/06/02 15:40:36;;;;;;;2.37;2.27;;;;;;;;;;5066463;28;20477;-81
2022/06/02 15:43:24;;;;;;;2.07;1.97;;;;;;;;;;5070445;28;20421;-80
2022/06/02 15:46:00;;;;;;;3.93;2.30;;;;;;;;;;5071294;28;20777;-78
2022/06/02 15:48:46;;;;;;;9.63;2.00;;;;;;;;;;5066891;28;20508;-80
2022/06/02 15:51:32;;;;;;;2.47;2.33;;;;;;;;;;5069611;28;20452;-81
2022/06/02 15:54:20;;;;;;;2.70;2.30;;;;;;;;;;5067078;28;20471;-81
2022/06/02 15:56:55;;;;;;;2.50;2.30;;;;;;;;;;5037780;28;20827;-81